createdAt,value
2023-05-24T00:01:33.729Z,14.37
2023-05-24T00:04:35.997Z,14.43
2023-05-24T00:07:40.289Z,14.36
2023-05-24T00:10:44.098Z,14.47
2023-05-24T00:13:46.297Z,14.50
2023-05-24T00:16:50.764Z,14.53
2023-05-24T00:19:52.762Z,14.52
2023-05-24T00:22:54.570Z,14.49
2023-05-24T00:25:57.951Z,14.38
2023-05-24T00:29:01.074Z,14.31
2023-05-24T00:32:03.072Z,14.25
2023-05-24T00:35:06.255Z,13.97
2023-05-24T00:38:08.773Z,13.78
2023-05-24T00:41:14.274Z,13.80
2023-05-24T00:44:17.965Z,13.57
2023-05-24T00:47:20.522Z,13.67
2023-05-24T00:50:23.036Z,13.81
2023-05-24T00:53:24.918Z,13.85
2023-05-24T00:56:31.893Z,13.75
2023-05-24T00:59:34.395Z,13.52
2023-05-24T01:02:37.364Z,13.37
2023-05-24T01:05:46.944Z,13.51
2023-05-24T01:09:12.384Z,13.42
2023-05-24T01:12:27.436Z,13.31
2023-05-24T01:15:41.719Z,13.46
2023-05-24T01:18:50.251Z,13.27
2023-05-24T01:22:02.273Z,13.13
2023-05-24T01:25:10.108Z,13.10
2023-05-24T01:28:14.323Z,13.19
2023-05-24T01:31:18.102Z,13.07
2023-05-24T01:34:21.382Z,13.04
2023-05-24T01:37:24.265Z,12.90
2023-05-24T01:40:26.166Z,12.88
2023-05-24T01:43:37.238Z,12.68
2023-05-24T01:46:39.414Z,12.73
2023-05-24T01:49:49.933Z,12.82
2023-05-24T01:52:53.728Z,12.65
2023-05-24T01:56:00.392Z,12.47
2023-05-24T01:59:07.375Z,12.52
2023-05-24T02:02:11.570Z,12.56
2023-05-24T02:05:13.682Z,12.47
2023-05-24T02:08:16.084Z,12.47
2023-05-24T02:11:18.031Z,12.41
2023-05-24T02:14:23.599Z,12.35
2023-05-24T02:17:25.393Z,12.58
2023-05-24T02:20:27.468Z,12.68
2023-05-24T02:23:30.280Z,12.66
2023-05-24T02:26:34.631Z,12.67
2023-05-24T02:29:37.780Z,12.52
2023-05-24T02:32:39.658Z,12.69
2023-05-24T02:35:42.455Z,12.44
2023-05-24T02:38:44.446Z,12.25
2023-05-24T02:41:46.214Z,12.17
2023-05-24T02:44:49.962Z,12.12
2023-05-24T02:47:53.494Z,12.15
2023-05-24T02:50:55.744Z,12.19
2023-05-24T02:54:06.420Z,12.18
2023-05-24T02:57:08.558Z,12.30
2023-05-24T03:00:14.412Z,12.37
2023-05-24T03:03:16.830Z,12.20
2023-05-24T03:06:19.185Z,12.39
2023-05-24T03:09:21.753Z,12.21
2023-05-24T03:12:23.786Z,12.06
2023-05-24T03:15:27.499Z,11.95
2023-05-24T03:18:29.278Z,12.02
2023-05-24T03:21:31.382Z,11.96
2023-05-24T03:24:33.168Z,12.08
2023-05-24T03:27:35.706Z,12.17
2023-05-24T03:30:41.805Z,12.40
2023-05-24T03:33:44.924Z,12.62
2023-05-24T03:36:49.052Z,12.80
2023-05-24T03:39:52.283Z,12.92
2023-05-24T03:42:54.031Z,13.00
2023-05-24T03:45:58.126Z,13.12
2023-05-24T03:48:59.843Z,13.11
2023-05-24T03:52:01.886Z,12.92
2023-05-24T03:55:04.071Z,12.50
2023-05-24T03:58:07.275Z,12.42
2023-05-24T04:01:12.668Z,12.44
2023-05-24T04:04:20.768Z,12.55
2023-05-24T04:07:25.230Z,12.38
2023-05-24T04:10:27.098Z,12.44
2023-05-24T04:13:31.807Z,12.51
2023-05-24T04:16:37.678Z,12.51
2023-05-24T04:19:39.597Z,12.54
2023-05-24T04:22:41.366Z,12.55
2023-05-24T04:25:44.116Z,12.57
2023-05-24T04:28:46.089Z,12.48
2023-05-24T04:31:51.744Z,12.27
2023-05-24T04:34:54.817Z,12.30
2023-05-24T04:37:59.542Z,12.32
2023-05-24T04:41:03.112Z,12.21
2023-05-24T04:44:05.745Z,12.35
2023-05-24T04:47:10.562Z,12.38
2023-05-24T04:50:14.225Z,12.31
2023-05-24T04:53:16.627Z,12.27
2023-05-24T04:56:20.940Z,12.35
2023-05-24T04:59:23.268Z,12.24
2023-05-24T05:02:27.150Z,12.13
2023-05-24T05:05:31.267Z,12.12
2023-05-24T05:08:33.251Z,12.18
2023-05-24T05:11:37.443Z,12.29
2023-05-24T05:14:39.447Z,12.14
2023-05-24T05:17:43.486Z,12.10
2023-05-24T05:20:46.169Z,12.24
2023-05-24T05:23:48.432Z,12.17
2023-05-24T05:26:50.195Z,12.11
2023-05-24T05:29:52.536Z,12.17
2023-05-24T05:32:57.550Z,12.15
2023-05-24T05:36:03.118Z,12.25
2023-05-24T05:39:05.672Z,12.32
2023-05-24T05:42:08.013Z,12.25
2023-05-24T05:45:10.952Z,12.25
2023-05-24T05:48:14.813Z,12.35
2023-05-24T05:51:16.897Z,12.47
2023-05-24T05:54:20.997Z,12.53
2023-05-24T05:57:23.082Z,12.68
2023-05-24T06:00:25.464Z,12.83
2023-05-24T06:03:29.091Z,12.83
2023-05-24T06:06:31.369Z,12.91
2023-05-24T06:09:35.922Z,13.03
2023-05-24T06:12:38.385Z,12.99
2023-05-24T06:15:40.487Z,13.08
2023-05-24T06:18:57.166Z,13.09
2023-05-24T06:22:10.038Z,13.17
2023-05-24T06:25:12.117Z,13.19
2023-05-24T06:28:15.071Z,13.29
2023-05-24T06:31:17.604Z,13.44
2023-05-24T06:34:21.777Z,13.39
2023-05-24T06:37:25.835Z,13.39
2023-05-24T06:40:28.375Z,13.33
2023-05-24T06:43:35.487Z,13.42
2023-05-24T06:46:37.340Z,13.37
2023-05-24T06:49:41.534Z,13.20
2023-05-24T06:52:43.467Z,13.28
2023-05-24T06:55:45.219Z,13.33
2023-05-24T06:58:47.737Z,13.29
2023-05-24T07:01:49.990Z,13.33
2023-05-24T07:04:56.151Z,13.35
2023-05-24T07:07:59.520Z,13.36
2023-05-24T07:11:04.123Z,13.31
2023-05-24T07:14:07.460Z,13.34
2023-05-24T07:17:09.328Z,13.45
2023-05-24T07:20:14.273Z,13.41
2023-05-24T07:23:19.340Z,13.31
2023-05-24T07:26:21.321Z,13.45
2023-05-24T07:29:23.568Z,13.52
2023-05-24T07:32:28.298Z,13.77
2023-05-24T07:35:31.520Z,13.72
2023-05-24T07:38:35.689Z,13.72
2023-05-24T07:41:37.774Z,13.77
2023-05-24T07:44:42.009Z,13.67
2023-05-24T07:47:46.140Z,13.71
2023-05-24T07:50:51.279Z,13.79
2023-05-24T07:53:54.344Z,13.86
2023-05-24T07:56:58.600Z,13.96
2023-05-24T08:00:00.636Z,14.24
2023-05-24T08:03:09.859Z,14.45
2023-05-24T08:06:15.890Z,14.48
2023-05-24T08:09:20.598Z,14.52
2023-05-24T08:12:23.400Z,14.55
2023-05-24T08:15:25.490Z,14.33
2023-05-24T08:18:29.580Z,14.32
2023-05-24T08:21:35.259Z,14.44
2023-05-24T08:24:39.421Z,14.47
2023-05-24T08:27:41.174Z,14.58
2023-05-24T08:30:46.519Z,14.69
2023-05-24T08:33:48.593Z,14.78
2023-05-24T08:36:52.226Z,14.80
2023-05-24T08:39:56.500Z,14.85
2023-05-24T08:43:02.788Z,14.88
2023-05-24T08:46:05.789Z,14.80
2023-05-24T08:49:07.927Z,14.81
2023-05-24T08:52:13.065Z,14.87
2023-05-24T08:55:15.021Z,15.12
2023-05-24T08:58:17.880Z,15.29
2023-05-24T09:01:20.239Z,15.21
2023-05-24T09:04:24.043Z,15.20
2023-05-24T09:07:30.450Z,15.26
2023-05-24T09:10:44.761Z,15.36
2023-05-24T09:13:56.839Z,15.37
2023-05-24T09:16:59.799Z,15.38
2023-05-24T09:20:01.868Z,15.45
2023-05-24T09:23:06.758Z,15.25
2023-05-24T09:26:10.187Z,15.30
2023-05-24T09:29:12.430Z,15.30
2023-05-24T09:32:14.678Z,15.36
2023-05-24T09:35:18.978Z,15.43
2023-05-24T09:38:22.391Z,15.48
2023-05-24T09:41:24.362Z,15.48
2023-05-24T09:44:28.828Z,15.31
2023-05-24T09:47:31.257Z,15.34
2023-05-24T09:50:33.326Z,15.33
2023-05-24T09:53:37.310Z,15.34
2023-05-24T09:56:43.090Z,15.27
2023-05-24T09:59:46.523Z,15.36
2023-05-24T10:03:01.432Z,15.38
2023-05-24T10:06:06.659Z,15.38
2023-05-24T10:09:11.753Z,15.31
2023-05-24T10:12:15.885Z,15.40
2023-05-24T10:15:17.825Z,15.48
2023-05-24T10:18:19.816Z,15.55
2023-05-24T10:21:23.819Z,15.55
2023-05-24T10:24:33.365Z,15.66
2023-05-24T10:27:38.939Z,15.83
2023-05-24T10:30:48.366Z,15.67
2023-05-24T10:33:51.159Z,15.87
2023-05-24T10:36:53.457Z,15.84
2023-05-24T10:39:58.959Z,15.96
2023-05-24T10:43:04.776Z,15.82
2023-05-24T10:46:09.769Z,15.75
2023-05-24T10:49:14.065Z,15.68
2023-05-24T10:52:17.293Z,15.77
2023-05-24T10:55:23.071Z,15.76
2023-05-24T10:58:43.648Z,15.83
2023-05-24T11:01:55.156Z,15.79
2023-05-24T11:05:05.434Z,15.87
2023-05-24T11:08:09.804Z,16.02
2023-05-24T11:14:23.389Z,15.64
2023-05-24T11:17:25.371Z,15.62
2023-05-24T11:20:29.101Z,15.73
2023-05-24T11:23:34.476Z,15.59
2023-05-24T11:26:41.765Z,15.64
2023-05-24T11:29:46.043Z,15.57
2023-05-24T11:32:53.919Z,15.66
2023-05-24T11:35:55.979Z,15.53
2023-05-24T11:38:58.044Z,15.57
2023-05-24T11:42:06.704Z,15.62
2023-05-24T11:45:10.808Z,15.60
2023-05-24T11:48:13.067Z,15.61
2023-05-24T11:51:14.821Z,15.64
2023-05-24T11:54:21.596Z,15.64
2023-05-24T11:57:38.047Z,15.67
2023-05-24T12:00:42.098Z,15.73
2023-05-24T12:03:44.678Z,15.63
2023-05-24T12:06:46.896Z,15.70
2023-05-24T12:09:49.413Z,15.66
2023-05-24T12:12:54.909Z,15.67
2023-05-24T12:15:57.239Z,15.78
2023-05-24T12:19:05.212Z,15.76
2023-05-24T12:22:11.979Z,15.79
2023-05-24T12:25:14.501Z,15.83
2023-05-24T12:28:20.154Z,15.84
2023-05-24T12:31:22.028Z,15.96
2023-05-24T12:34:24.568Z,15.84
2023-05-24T12:37:30.271Z,16.00
2023-05-24T12:40:35.473Z,16.00
2023-05-24T12:43:39.466Z,15.96
2023-05-24T12:46:41.402Z,15.95
2023-05-24T12:49:45.740Z,16.05
2023-05-24T12:52:47.712Z,16.02
2023-05-24T12:55:50.320Z,16.07
2023-05-24T12:58:53.945Z,16.05
2023-05-24T13:01:55.720Z,16.01
2023-05-24T13:04:58.001Z,15.96
2023-05-24T13:07:59.773Z,15.82
2023-05-24T13:11:01.845Z,15.75
2023-05-24T13:14:06.686Z,15.85
2023-05-24T13:17:09.210Z,15.89
2023-05-24T13:20:11.614Z,15.78
2023-05-24T13:23:13.616Z,15.69
2023-05-24T13:26:18.325Z,15.75
2023-05-24T13:29:36.848Z,15.71
2023-05-24T13:32:45.593Z,15.64
2023-05-24T13:35:49.231Z,15.45
2023-05-24T13:38:54.324Z,15.33
2023-05-24T13:42:06.258Z,15.45
2023-05-24T13:45:12.791Z,15.37
2023-05-24T13:48:17.148Z,15.53
2023-05-24T13:51:18.970Z,15.49
2023-05-24T13:54:21.104Z,15.30
2023-05-24T13:57:26.542Z,15.21
2023-05-24T14:00:34.203Z,15.37
2023-05-24T14:03:36.451Z,15.38
2023-05-24T14:06:38.741Z,15.26
2023-05-24T14:09:40.728Z,15.36
2023-05-24T14:12:42.961Z,15.36
2023-05-24T14:15:48.829Z,15.39
2023-05-24T14:18:51.281Z,15.33
2023-05-24T14:21:53.784Z,15.31
2023-05-24T14:24:55.656Z,15.38
2023-05-24T14:27:57.487Z,15.26
2023-05-24T14:31:04.566Z,15.29
2023-05-24T14:34:06.821Z,15.35
2023-05-24T14:37:09.022Z,15.42
2023-05-24T14:40:11.974Z,15.28
2023-05-24T14:43:14.208Z,15.32
2023-05-24T14:46:22.196Z,15.29
2023-05-24T14:49:24.013Z,15.38
2023-05-24T14:52:25.782Z,15.42
2023-05-24T14:55:27.525Z,15.36
2023-05-24T14:58:29.664Z,15.34
2023-05-24T15:01:32.855Z,15.25
2023-05-24T15:04:36.296Z,14.94
2023-05-24T15:07:38.274Z,14.47
2023-05-24T15:10:40.498Z,14.17
2023-05-24T15:13:44.964Z,14.05
2023-05-24T15:16:50.851Z,14.06
2023-05-24T15:19:53.169Z,13.82
2023-05-24T15:22:56.301Z,13.67
2023-05-24T15:25:58.063Z,13.37
2023-05-24T15:29:00.377Z,13.34
2023-05-24T15:32:07.876Z,13.51
2023-05-24T15:35:10.108Z,13.39
2023-05-24T15:38:11.894Z,13.54
2023-05-24T15:41:15.239Z,13.48
2023-05-24T15:44:17.608Z,13.09
2023-05-24T15:47:23.324Z,12.84
2023-05-24T15:50:42.606Z,12.79
2023-05-24T15:53:49.290Z,12.78
2023-05-24T15:56:51.260Z,12.65
2023-05-24T15:59:53.198Z,12.60
2023-05-24T16:02:57.732Z,12.36
2023-05-24T16:05:59.787Z,12.43
2023-05-24T16:09:01.533Z,12.59
2023-05-24T16:12:03.772Z,12.61
2023-05-24T16:15:07.839Z,12.71
2023-05-24T16:18:11.368Z,12.69
2023-05-24T16:21:13.225Z,12.66
2023-05-24T16:24:15.216Z,12.77
2023-05-24T16:27:18.263Z,12.67
2023-05-24T16:30:20.260Z,12.67
2023-05-24T16:33:25.727Z,12.74
2023-05-24T16:36:29.097Z,12.69
2023-05-24T16:39:31.349Z,12.84
2023-05-24T16:42:33.115Z,12.71
2023-05-24T16:45:35.178Z,12.69
2023-05-24T16:48:39.256Z,12.72
2023-05-24T16:51:43.396Z,12.74
2023-05-24T16:54:45.677Z,12.56
2023-05-24T16:57:47.658Z,12.58
2023-05-24T17:00:49.747Z,12.51
2023-05-24T17:03:55.570Z,12.38
2023-05-24T17:07:00.614Z,12.47
2023-05-24T17:10:05.342Z,12.46
2023-05-24T17:13:07.498Z,12.49
2023-05-24T17:16:09.396Z,12.52
2023-05-24T17:19:15.055Z,12.49
2023-05-24T17:22:17.028Z,12.42
2023-05-24T17:25:19.339Z,12.51
2023-05-24T17:28:21.738Z,12.47
2023-05-24T17:31:24.337Z,12.44
2023-05-24T17:34:28.449Z,12.43
2023-05-24T17:37:32.206Z,12.51
2023-05-24T17:40:34.629Z,12.57
2023-05-24T17:43:40.596Z,12.49
2023-05-24T17:46:43.102Z,12.48
2023-05-24T17:49:47.592Z,12.25
2023-05-24T17:52:50.007Z,12.29
2023-05-24T17:55:53.667Z,12.36
2023-05-24T17:58:56.271Z,12.48
2023-05-24T18:01:59.357Z,12.25
2023-05-24T18:05:03.616Z,12.49
2023-05-24T18:08:11.607Z,12.50
2023-05-24T18:11:14.399Z,12.52
2023-05-24T18:14:17.297Z,12.70
2023-05-24T18:17:20.197Z,12.80
2023-05-24T18:20:26.790Z,12.79
2023-05-24T18:23:29.631Z,12.77
2023-05-24T18:26:33.280Z,12.84
2023-05-24T18:29:37.781Z,12.91
2023-05-24T18:32:51.907Z,12.91
2023-05-24T18:36:01.438Z,12.88
2023-05-24T18:39:04.226Z,12.97
2023-05-24T18:42:06.781Z,13.09
2023-05-24T18:45:09.936Z,13.12
2023-05-24T18:48:15.053Z,13.06
2023-05-24T18:51:19.765Z,13.14
2023-05-24T18:54:23.542Z,13.23
2023-05-24T18:57:26.344Z,13.31
2023-05-24T19:00:31.444Z,13.35
2023-05-24T19:03:34.846Z,13.35
2023-05-24T19:06:42.153Z,13.40
2023-05-24T19:09:44.938Z,13.39
2023-05-24T19:12:47.440Z,13.44
2023-05-24T19:15:51.186Z,13.38
2023-05-24T19:18:53.649Z,13.33
2023-05-24T19:21:57.720Z,13.24
2023-05-24T19:25:00.130Z,13.31
2023-05-24T19:28:02.506Z,13.31
2023-05-24T19:31:05.158Z,13.33
2023-05-24T19:34:08.464Z,13.29
2023-05-24T19:37:13.081Z,13.27
2023-05-24T19:40:15.053Z,13.28
2023-05-24T19:43:19.198Z,13.25
2023-05-24T19:46:21.164Z,13.16
2023-05-24T19:49:23.349Z,13.04
2023-05-24T19:52:27.235Z,13.12
2023-05-24T19:55:29.377Z,13.13
2023-05-24T19:58:32.227Z,13.16
2023-05-24T20:01:34.244Z,13.15
2023-05-24T20:04:36.209Z,13.13
2023-05-24T20:07:39.717Z,13.15
2023-05-24T20:10:43.150Z,13.17
2023-05-24T20:13:45.074Z,13.19
2023-05-24T20:16:50.040Z,13.18
2023-05-24T20:19:53.039Z,13.11
2023-05-24T20:22:56.686Z,13.14
2023-05-24T20:25:58.516Z,13.14
2023-05-24T20:29:00.480Z,13.15
2023-05-24T20:32:02.560Z,13.14
2023-05-24T20:35:07.495Z,13.13
2023-05-24T20:38:12.015Z,13.17
2023-05-24T20:41:14.237Z,13.20
2023-05-24T20:44:16.285Z,13.16
2023-05-24T20:47:18.784Z,13.12
2023-05-24T20:50:20.860Z,13.09
2023-05-24T20:53:27.196Z,13.09
2023-05-24T20:56:29.207Z,13.11
2023-05-24T20:59:31.243Z,13.06
2023-05-24T21:02:33.096Z,13.04
2023-05-24T21:05:35.291Z,13.05
2023-05-24T21:08:38.926Z,12.96
2023-05-24T21:11:40.702Z,12.98
2023-05-24T21:14:43.619Z,12.99
2023-05-24T21:17:47.739Z,12.97
2023-05-24T21:20:52.101Z,12.99
2023-05-24T21:23:57.566Z,12.97
2023-05-24T21:26:59.548Z,12.98
2023-05-24T21:30:01.365Z,12.88
2023-05-24T21:33:03.475Z,12.75
2023-05-24T21:36:05.673Z,12.60
2023-05-24T21:39:09.165Z,12.59
2023-05-24T21:42:11.230Z,12.44
2023-05-24T21:45:16.286Z,12.27
2023-05-24T21:48:20.589Z,12.18
2023-05-24T21:51:22.850Z,12.35
2023-05-24T21:54:26.417Z,12.45
2023-05-24T21:57:30.535Z,12.52
2023-05-24T22:00:32.514Z,12.41
2023-05-24T22:03:34.386Z,12.39
2023-05-24T22:06:36.515Z,12.33
2023-05-24T22:09:39.851Z,12.29
2023-05-24T22:12:43.824Z,12.20
2023-05-24T22:15:48.355Z,12.11
2023-05-24T22:18:51.788Z,12.08
2023-05-24T22:21:53.620Z,12.19
2023-05-24T22:24:56.787Z,12.15
2023-05-24T22:27:58.547Z,12.23
2023-05-24T22:31:02.502Z,11.96
2023-05-24T22:34:06.774Z,12.14
2023-05-24T22:37:08.738Z,12.04
2023-05-24T22:40:13.416Z,12.06
2023-05-24T22:43:15.134Z,12.04
2023-05-24T22:46:17.591Z,12.05
2023-05-24T22:49:19.790Z,11.83
2023-05-24T22:52:21.738Z,11.84
2023-05-24T22:55:25.152Z,11.96
2023-05-24T22:58:29.223Z,11.98
2023-05-24T23:01:31.562Z,11.85
2023-05-24T23:04:33.376Z,11.60
2023-05-24T23:07:35.121Z,11.49
2023-05-24T23:10:38.456Z,11.46
2023-05-24T23:13:40.269Z,11.47
2023-05-24T23:16:42.614Z,11.37
2023-05-24T23:19:44.502Z,11.51
2023-05-24T23:22:48.721Z,11.59
2023-05-24T23:25:57.073Z,11.58
2023-05-24T23:28:59.329Z,11.74
2023-05-24T23:32:03.627Z,11.58
2023-05-24T23:35:06.636Z,11.60
2023-05-24T23:38:08.422Z,11.71
2023-05-24T23:41:11.796Z,11.79
2023-05-24T23:44:16.429Z,11.64
2023-05-24T23:47:18.154Z,11.65
2023-05-24T23:50:20.337Z,11.79
2023-05-24T23:53:22.121Z,11.82
2023-05-24T23:56:25.482Z,11.89
2023-05-24T23:59:27.256Z,12.00
